createdAt,value
2022-09-28T00:00:23.803Z,10.56
2022-09-28T00:03:21.544Z,10.71
2022-09-28T00:06:24.416Z,10.83
2022-09-28T00:09:21.109Z,10.75
2022-09-28T00:12:18.634Z,10.72
2022-09-28T00:15:16.543Z,10.69
2022-09-28T00:18:13.023Z,10.63
2022-09-28T00:21:12.898Z,10.48
2022-09-28T00:24:17.437Z,10.48
2022-09-28T00:27:14.267Z,10.26
2022-09-28T00:30:11.242Z,10.17
2022-09-28T00:33:08.433Z,10.11
2022-09-28T00:36:05.475Z,10.10
2022-09-28T00:39:06.868Z,10.21
2022-09-28T00:42:13.438Z,10.42
2022-09-28T00:45:10.440Z,10.54
2022-09-28T00:48:07.532Z,10.64
2022-09-28T00:51:07.221Z,10.64
2022-09-28T00:54:04.683Z,10.46
2022-09-28T00:57:01.263Z,10.38
2022-09-28T00:59:59.191Z,10.45
2022-09-28T01:02:56.432Z,10.65
2022-09-28T01:05:53.188Z,10.65
2022-09-28T01:08:51.635Z,10.67
2022-09-28T01:11:49.241Z,10.76
2022-09-28T01:14:46.166Z,10.63
2022-09-28T01:18:02.709Z,10.65
2022-09-28T01:21:22.976Z,10.74
2022-09-28T01:24:40.346Z,10.57
2022-09-28T01:27:41.350Z,10.47
2022-09-28T01:31:04.843Z,10.35
2022-09-28T01:34:14.817Z,10.41
2022-09-28T01:37:13.479Z,10.37
2022-09-28T01:40:10.621Z,10.44
2022-09-28T01:43:12.286Z,10.34
2022-09-28T01:46:25.807Z,10.41
2022-09-28T01:49:28.509Z,10.49
2022-09-28T01:52:37.275Z,10.41
2022-09-28T01:55:35.377Z,10.44
2022-09-28T01:58:34.392Z,10.42
2022-09-28T02:01:40.138Z,10.37
2022-09-28T02:04:50.104Z,10.33
2022-09-28T02:08:03.422Z,10.28
2022-09-28T02:11:11.611Z,10.22
2022-09-28T02:14:10.610Z,10.19
2022-09-28T02:17:08.791Z,10.16
2022-09-28T02:20:07.482Z,10.15
2022-09-28T02:23:04.169Z,10.19
2022-09-28T02:26:03.198Z,10.29
2022-09-28T02:29:00.692Z,10.40
2022-09-28T02:31:57.235Z,10.34
2022-09-28T02:34:55.380Z,10.40
2022-09-28T02:37:52.768Z,10.55
2022-09-28T02:41:21.831Z,10.68
2022-09-28T02:44:53.358Z,10.72
2022-09-28T02:47:53.567Z,10.77
2022-09-28T02:51:01.941Z,10.84
2022-09-28T02:54:15.430Z,10.81
2022-09-28T02:57:57.572Z,10.74
2022-09-28T03:01:13.696Z,10.64
2022-09-28T03:04:19.968Z,10.60
2022-09-28T03:07:33.924Z,10.55
2022-09-28T03:10:36.174Z,10.59
2022-09-28T03:13:34.532Z,10.54
2022-09-28T03:16:32.431Z,10.48
2022-09-28T03:19:33.290Z,10.53
2022-09-28T03:22:30.148Z,10.58
2022-09-28T03:25:27.894Z,10.64
2022-09-28T03:28:25.924Z,10.72
2022-09-28T03:31:23.738Z,10.71
2022-09-28T03:34:20.252Z,10.78
2022-09-28T03:37:17.696Z,10.79
2022-09-28T03:40:14.647Z,10.84
2022-09-28T03:43:12.654Z,10.90
2022-09-28T03:46:10.587Z,11.05
2022-09-28T03:49:12.672Z,11.12
2022-09-28T03:52:09.739Z,11.14
2022-09-28T03:55:07.666Z,11.25
2022-09-28T03:58:04.407Z,11.36
2022-09-28T04:01:05.842Z,11.51
2022-09-28T04:04:03.326Z,11.67
2022-09-28T04:07:01.463Z,11.62
2022-09-28T04:09:58.278Z,11.37
2022-09-28T04:12:58.818Z,11.12
2022-09-28T04:15:56.180Z,10.83
2022-09-28T04:18:53.612Z,10.90
2022-09-28T04:22:03.405Z,11.15
2022-09-28T04:25:00.350Z,11.29
2022-09-28T04:28:15.755Z,11.41
2022-09-28T04:31:16.234Z,11.44
2022-09-28T04:34:19.702Z,11.36
2022-09-28T04:37:16.640Z,11.34
2022-09-28T04:40:14.608Z,11.42
2022-09-28T04:43:11.629Z,11.36
2022-09-28T04:46:09.743Z,11.44
2022-09-28T04:49:13.720Z,11.43
2022-09-28T04:52:18.868Z,11.39
2022-09-28T04:55:20.664Z,11.54
2022-09-28T04:58:17.454Z,11.59
2022-09-28T05:01:16.135Z,11.65
2022-09-28T05:04:39.778Z,11.67
2022-09-28T05:07:46.032Z,11.49
2022-09-28T05:10:43.702Z,11.32
2022-09-28T05:13:45.446Z,11.19
2022-09-28T05:16:44.844Z,11.02
2022-09-28T05:19:57.443Z,10.91
2022-09-28T05:22:54.673Z,10.77
2022-09-28T05:25:52.739Z,10.75
2022-09-28T05:28:55.707Z,10.75
2022-09-28T05:31:52.812Z,11.09
2022-09-28T05:35:16.811Z,11.21
2022-09-28T05:38:16.474Z,11.13
2022-09-28T05:41:13.678Z,11.63
2022-09-28T05:44:10.747Z,11.93
2022-09-28T05:47:07.672Z,11.74
2022-09-28T05:50:05.915Z,11.47
2022-09-28T05:53:08.364Z,11.36
2022-09-28T05:56:06.703Z,11.23
2022-09-28T05:59:06.542Z,11.37
2022-09-28T06:02:03.942Z,11.43
2022-09-28T06:05:01.774Z,11.31
2022-09-28T06:07:59.666Z,11.49
2022-09-28T06:11:00.242Z,11.69
2022-09-28T06:13:57.624Z,11.71
2022-09-28T06:16:57.920Z,11.74
2022-09-28T06:19:55.902Z,11.74
2022-09-28T06:22:56.415Z,11.79
2022-09-28T06:25:53.351Z,11.70
2022-09-28T06:28:50.616Z,11.68
2022-09-28T06:31:47.539Z,11.74
2022-09-28T06:34:44.209Z,11.87
2022-09-28T06:37:44.875Z,12.00
2022-09-28T06:40:42.804Z,12.19
2022-09-28T06:43:39.788Z,12.18
2022-09-28T06:46:42.861Z,12.20
2022-09-28T06:49:40.714Z,12.50
2022-09-28T06:52:57.895Z,12.60
2022-09-28T06:56:10.414Z,12.55
2022-09-28T06:59:07.669Z,12.62
2022-09-28T07:02:07.404Z,12.57
2022-09-28T07:05:26.833Z,12.68
2022-09-28T07:09:17.656Z,12.75
2022-09-28T07:12:39.960Z,12.78
2022-09-28T07:15:56.865Z,12.81
2022-09-28T07:18:54.008Z,12.82
2022-09-28T07:22:03.009Z,12.66
2022-09-28T07:25:00.749Z,12.47
2022-09-28T07:28:17.395Z,12.36
2022-09-28T07:31:40.072Z,12.37
2022-09-28T07:35:08.008Z,12.37
2022-09-28T07:38:15.583Z,12.40
2022-09-28T07:41:14.123Z,12.28
2022-09-28T07:44:18.994Z,12.25
2022-09-28T07:47:29.662Z,12.25
2022-09-28T07:51:00.175Z,12.22
2022-09-28T07:54:03.938Z,12.33
2022-09-28T07:57:18.541Z,12.29
2022-09-28T08:00:21.274Z,12.24
2022-09-28T08:03:24.130Z,12.28
2022-09-28T08:06:23.371Z,12.35
2022-09-28T08:09:20.329Z,12.23
2022-09-28T08:12:40.773Z,12.22
2022-09-28T08:16:02.278Z,12.18
2022-09-28T08:19:07.583Z,12.21
2022-09-28T08:22:04.425Z,12.15
2022-09-28T08:25:01.966Z,12.18
2022-09-28T08:28:00.819Z,12.24
2022-09-28T08:31:01.433Z,12.38
2022-09-28T08:34:18.967Z,12.26
2022-09-28T08:37:34.844Z,12.27
2022-09-28T08:41:45.286Z,12.30
2022-09-28T08:45:07.261Z,12.37
2022-09-28T08:48:40.459Z,12.40
2022-09-28T08:52:00.844Z,12.40
2022-09-28T08:55:33.031Z,12.44
2022-09-28T08:58:33.601Z,12.41
2022-09-28T09:01:34.790Z,12.40
2022-09-28T09:04:34.676Z,12.35
2022-09-28T09:08:05.801Z,12.54
2022-09-28T09:11:44.464Z,12.41
2022-09-28T09:14:47.873Z,12.40
2022-09-28T09:18:24.016Z,12.33
2022-09-28T09:21:53.064Z,12.16
2022-09-28T09:24:51.924Z,12.09
2022-09-28T09:28:27.621Z,12.16
2022-09-28T09:31:48.056Z,12.13
2022-09-28T09:35:21.838Z,12.15
2022-09-28T09:39:32.264Z,12.30
2022-09-28T09:43:19.727Z,12.07
2022-09-28T09:46:43.355Z,12.06
2022-09-28T09:50:15.489Z,12.15
2022-09-28T09:53:59.881Z,12.33
2022-09-28T09:57:13.905Z,12.40
2022-09-28T10:00:27.758Z,12.42
2022-09-28T10:03:39.151Z,12.53
2022-09-28T10:06:42.716Z,12.74
2022-09-28T10:09:43.019Z,12.89
2022-09-28T10:12:57.460Z,12.76
2022-09-28T10:15:55.524Z,12.58
2022-09-28T10:18:56.602Z,12.57
2022-09-28T10:22:18.256Z,12.61
2022-09-28T10:25:16.035Z,12.41
2022-09-28T10:28:17.988Z,12.46
2022-09-28T10:31:54.178Z,12.61
2022-09-28T10:35:19.667Z,12.74
2022-09-28T10:38:34.020Z,12.64
2022-09-28T10:41:49.145Z,12.80
2022-09-28T10:44:53.281Z,12.84
2022-09-28T10:48:12.828Z,12.96
2022-09-28T10:51:09.645Z,12.95
2022-09-28T10:54:16.933Z,12.96
2022-09-28T10:57:34.659Z,13.19
2022-09-28T11:00:40.165Z,13.57
2022-09-28T11:03:56.439Z,14.06
2022-09-28T11:09:59.001Z,14.42
2022-09-28T11:12:57.223Z,14.11
2022-09-28T11:15:56.998Z,14.33
2022-09-28T11:19:24.388Z,14.45
2022-09-28T11:22:23.980Z,14.81
2022-09-28T11:25:26.054Z,15.04
2022-09-28T11:28:24.868Z,15.33
2022-09-28T11:31:28.260Z,15.28
2022-09-28T11:34:58.247Z,14.77
2022-09-28T11:38:27.610Z,14.55
2022-09-28T11:42:05.935Z,14.48
2022-09-28T11:45:24.983Z,14.47
2022-09-28T11:48:25.692Z,14.79
2022-09-28T11:51:28.113Z,15.10
2022-09-28T11:54:38.535Z,15.01
2022-09-28T11:57:38.096Z,14.98
2022-09-28T12:00:38.384Z,15.13
2022-09-28T12:03:43.966Z,15.26
2022-09-28T12:06:46.880Z,15.25
2022-09-28T12:10:10.404Z,14.98
2022-09-28T12:13:20.237Z,14.59
2022-09-28T12:16:53.517Z,14.52
2022-09-28T12:19:59.439Z,14.50
2022-09-28T12:23:00.026Z,14.49
2022-09-28T12:26:02.308Z,14.43
2022-09-28T12:29:02.053Z,14.53
2022-09-28T12:32:02.791Z,14.60
2022-09-28T12:35:00.060Z,14.85
2022-09-28T12:38:02.310Z,14.90
2022-09-28T12:41:16.701Z,14.77
2022-09-28T12:44:29.413Z,14.71
2022-09-28T12:47:39.185Z,14.77
2022-09-28T12:51:04.725Z,14.62
2022-09-28T12:54:25.044Z,14.58
2022-09-28T12:57:43.010Z,14.65
2022-09-28T13:01:18.554Z,14.54
2022-09-28T13:04:40.441Z,14.43
2022-09-28T13:07:54.097Z,14.36
2022-09-28T13:11:31.991Z,14.50
2022-09-28T13:14:54.447Z,14.77
2022-09-28T13:18:01.767Z,14.95
2022-09-28T13:21:06.428Z,14.73
2022-09-28T13:24:27.990Z,14.77
2022-09-28T13:27:30.321Z,14.87
2022-09-28T13:30:28.297Z,14.94
2022-09-28T13:33:36.842Z,14.79
2022-09-28T13:36:34.630Z,14.54
2022-09-28T13:39:36.579Z,14.43
2022-09-28T13:42:40.739Z,14.45
2022-09-28T13:45:45.652Z,14.36
2022-09-28T13:48:48.621Z,14.50
2022-09-28T13:52:07.558Z,14.53
2022-09-28T13:55:14.063Z,14.77
2022-09-28T13:58:27.780Z,14.83
2022-09-28T14:01:39.922Z,14.86
2022-09-28T14:04:52.445Z,15.09
2022-09-28T14:08:20.809Z,15.27
2022-09-28T14:11:36.583Z,15.29
2022-09-28T14:15:03.280Z,15.54
2022-09-28T14:18:23.482Z,15.62
2022-09-28T14:21:45.412Z,15.32
2022-09-28T14:24:55.526Z,15.31
2022-09-28T14:28:30.968Z,15.44
2022-09-28T14:31:28.495Z,15.56
2022-09-28T14:34:34.364Z,15.40
2022-09-28T14:37:51.873Z,15.17
2022-09-28T14:41:09.855Z,15.15
2022-09-28T14:44:08.411Z,15.25
2022-09-28T14:47:25.094Z,15.52
2022-09-28T14:50:28.300Z,15.55
2022-09-28T14:53:24.921Z,15.42
2022-09-28T14:56:21.870Z,15.31
2022-09-28T14:59:36.154Z,15.46
2022-09-28T15:02:33.220Z,15.67
2022-09-28T15:05:32.837Z,15.75
2022-09-28T15:08:37.543Z,15.79
2022-09-28T15:11:34.889Z,15.93
2022-09-28T15:14:35.566Z,15.83
2022-09-28T15:17:40.074Z,15.65
2022-09-28T15:20:38.032Z,15.63
2022-09-28T15:23:43.146Z,15.57
2022-09-28T15:26:40.171Z,15.41
2022-09-28T15:29:37.224Z,15.43
2022-09-28T15:32:34.135Z,15.33
2022-09-28T15:35:30.986Z,15.49
2022-09-28T15:38:28.072Z,15.56
2022-09-28T15:41:24.910Z,15.47
2022-09-28T15:44:33.078Z,15.49
2022-09-28T15:47:33.005Z,15.61
2022-09-28T15:50:30.101Z,15.80
2022-09-28T15:53:26.838Z,15.66
2022-09-28T15:56:23.819Z,15.43
2022-09-28T15:59:39.749Z,15.54
2022-09-28T16:02:37.250Z,15.62
2022-09-28T16:05:48.998Z,15.69
2022-09-28T16:08:46.284Z,15.65
2022-09-28T16:11:43.115Z,15.68
2022-09-28T16:14:40.044Z,15.50
2022-09-28T16:17:38.038Z,15.32
2022-09-28T16:20:37.384Z,15.28
2022-09-28T16:23:35.746Z,15.30
2022-09-28T16:26:40.165Z,15.23
2022-09-28T16:29:41.682Z,15.21
2022-09-28T16:32:50.609Z,15.20
2022-09-28T16:36:05.888Z,14.96
2022-09-28T16:39:02.867Z,14.78
2022-09-28T16:42:01.849Z,14.75
2022-09-28T16:44:59.443Z,14.71
2022-09-28T16:47:57.510Z,14.67
2022-09-28T16:50:55.351Z,14.66
2022-09-28T16:54:10.849Z,14.58
2022-09-28T16:57:10.026Z,14.44
2022-09-28T17:00:10.948Z,14.18
2022-09-28T17:03:15.473Z,14.04
2022-09-28T17:06:13.383Z,13.98
2022-09-28T17:09:12.633Z,13.92
2022-09-28T17:12:18.098Z,13.92
2022-09-28T17:15:15.770Z,13.93
2022-09-28T17:18:13.945Z,13.98
2022-09-28T17:21:19.347Z,13.95
2022-09-28T17:24:17.876Z,13.79
2022-09-28T17:27:16.907Z,13.56
2022-09-28T17:30:14.798Z,13.53
2022-09-28T17:33:13.160Z,13.74
2022-09-28T17:36:12.554Z,13.82
2022-09-28T17:39:12.454Z,13.79
2022-09-28T17:42:09.968Z,13.65
2022-09-28T17:45:08.624Z,13.60
2022-09-28T17:48:11.297Z,13.58
2022-09-28T17:51:08.435Z,13.46
2022-09-28T17:54:06.888Z,13.29
2022-09-28T17:57:03.871Z,13.23
2022-09-28T18:00:01.700Z,13.24
2022-09-28T18:03:01.469Z,13.33
2022-09-28T18:06:04.314Z,13.45
2022-09-28T18:09:03.093Z,13.80
2022-09-28T18:12:04.231Z,13.93
2022-09-28T18:15:01.293Z,13.98
2022-09-28T18:17:58.271Z,13.86
2022-09-28T18:20:55.280Z,13.58
2022-09-28T18:23:52.227Z,13.12
2022-09-28T18:26:49.092Z,12.90
2022-09-28T18:29:46.392Z,12.82
2022-09-28T18:32:43.071Z,12.97
2022-09-28T18:35:40.076Z,12.93
2022-09-28T18:38:37.856Z,13.02
2022-09-28T18:41:35.095Z,12.60
2022-09-28T18:44:32.469Z,12.30
2022-09-28T18:47:29.292Z,12.59
2022-09-28T18:50:26.316Z,12.70
2022-09-28T18:53:23.917Z,12.68
2022-09-28T18:56:21.308Z,12.71
2022-09-28T18:59:18.084Z,12.58
2022-09-28T19:02:15.724Z,12.60
2022-09-28T19:05:13.417Z,12.63
2022-09-28T19:08:10.398Z,12.81
2022-09-28T19:11:12.423Z,12.99
2022-09-28T19:14:11.141Z,12.99
2022-09-28T19:17:08.740Z,12.92
2022-09-28T19:20:06.912Z,12.84
2022-09-28T19:23:04.674Z,12.94
2022-09-28T19:26:12.894Z,12.83
2022-09-28T19:29:10.523Z,12.73
2022-09-28T19:32:08.537Z,12.96
2022-09-28T19:35:06.512Z,12.99
2022-09-28T19:38:04.527Z,12.74
2022-09-28T19:41:02.816Z,12.71
2022-09-28T19:44:02.722Z,12.85
2022-09-28T19:47:07.379Z,12.87
2022-09-28T19:50:05.305Z,12.72
2022-09-28T19:53:02.173Z,12.59
2022-09-28T19:56:00.125Z,12.57
2022-09-28T19:58:57.628Z,12.36
2022-09-28T20:01:56.388Z,12.47
2022-09-28T20:04:53.148Z,12.31
2022-09-28T20:07:50.473Z,12.40
2022-09-28T20:10:52.456Z,12.41
2022-09-28T20:13:49.712Z,12.34
2022-09-28T20:16:47.327Z,12.01
2022-09-28T20:19:44.423Z,11.92
2022-09-28T20:22:43.772Z,11.73
2022-09-28T20:25:41.357Z,11.90
2022-09-28T20:28:38.757Z,11.76
2022-09-28T20:31:37.108Z,11.68
2022-09-28T20:34:34.266Z,11.63
2022-09-28T20:37:33.042Z,11.54
2022-09-28T20:40:30.208Z,11.38
2022-09-28T20:43:29.928Z,11.46
2022-09-28T20:46:27.505Z,11.46
2022-09-28T20:49:24.499Z,11.55
2022-09-28T20:52:21.417Z,11.42
2022-09-28T20:55:18.134Z,11.29
2022-09-28T20:58:15.278Z,11.69
2022-09-28T21:01:17.189Z,11.71
2022-09-28T21:04:14.575Z,11.59
2022-09-28T21:07:11.295Z,11.82
2022-09-28T21:10:09.350Z,11.85
2022-09-28T21:13:06.190Z,11.85
2022-09-28T21:16:03.773Z,11.69
2022-09-28T21:19:01.351Z,11.88
2022-09-28T21:21:58.165Z,11.93
2022-09-28T21:24:55.247Z,11.91
2022-09-28T21:27:52.405Z,11.71
2022-09-28T21:30:50.002Z,11.48
2022-09-28T21:33:47.597Z,11.70
2022-09-28T21:36:44.247Z,11.87
2022-09-28T21:39:41.357Z,11.75
2022-09-28T21:42:38.561Z,11.76
2022-09-28T21:45:36.300Z,11.54
2022-09-28T21:48:33.195Z,11.52
2022-09-28T21:51:30.605Z,11.78
2022-09-28T21:54:29.178Z,12.11
2022-09-28T21:57:26.483Z,11.69
2022-09-28T22:00:23.589Z,11.56
2022-09-28T22:03:20.790Z,11.80
2022-09-28T22:06:19.210Z,11.77
2022-09-28T22:09:16.302Z,11.53
2022-09-28T22:12:14.199Z,11.55
2022-09-28T22:15:11.544Z,11.77
2022-09-28T22:18:08.829Z,11.62
2022-09-28T22:21:14.726Z,11.57
2022-09-28T22:24:12.299Z,11.78
2022-09-28T22:27:09.361Z,11.53
2022-09-28T22:30:06.957Z,11.03
2022-09-28T22:33:04.408Z,10.82
2022-09-28T22:36:01.471Z,10.94
2022-09-28T22:38:58.622Z,11.09
2022-09-28T22:41:55.577Z,11.07
2022-09-28T22:44:52.758Z,11.01
2022-09-28T22:47:50.615Z,10.90
2022-09-28T22:50:51.451Z,10.80
2022-09-28T22:53:48.555Z,10.70
2022-09-28T22:56:45.243Z,10.81
2022-09-28T22:59:42.615Z,10.86
2022-09-28T23:02:39.754Z,10.59
2022-09-28T23:05:37.758Z,10.48
2022-09-28T23:08:35.369Z,10.82
2022-09-28T23:11:32.218Z,10.79
2022-09-28T23:14:29.805Z,10.76
2022-09-28T23:17:27.622Z,10.82
2022-09-28T23:20:24.314Z,10.72
2022-09-28T23:23:21.635Z,10.71
2022-09-28T23:26:20.588Z,10.64
2022-09-28T23:29:17.406Z,10.50
2022-09-28T23:32:15.184Z,10.31
2022-09-28T23:35:13.250Z,10.08
2022-09-28T23:38:13.678Z,10.29
2022-09-28T23:41:10.666Z,10.06
2022-09-28T23:44:07.336Z,9.88
2022-09-28T23:47:04.579Z,9.78
2022-09-28T23:50:02.309Z,9.87
2022-09-28T23:52:59.330Z,9.99
2022-09-28T23:55:56.343Z,10.18
2022-09-28T23:58:53.712Z,10.17
